sensor_id;sensor_type;location;lat;lon;timestamp;P1;durP1;ratioP1;P2;durP2;ratioP2
44214;SDS011;29884;47.450;19.124;2023-06-10T00:00:12;5.25;;;4.30;;
44214;SDS011;29884;47.450;19.124;2023-06-10T00:02:40;5.47;;;4.43;;
44214;SDS011;29884;47.450;19.124;2023-06-10T00:05:06;5.60;;;4.55;;
44214;SDS011;29884;47.450;19.124;2023-06-10T00:07:33;4.97;;;3.90;;
44214;SDS011;29884;47.450;19.124;2023-06-10T00:10:03;4.05;;;3.38;;
44214;SDS011;29884;47.450;19.124;2023-06-10T00:12:31;4.80;;;4.32;;
44214;SDS011;29884;47.450;19.124;2023-06-10T00:15:02;5.38;;;4.45;;
44214;SDS011;29884;47.450;19.124;2023-06-10T00:17:29;5.43;;;3.95;;
44214;SDS011;29884;47.450;19.124;2023-06-10T00:19:55;4.82;;;3.80;;
44214;SDS011;29884;47.450;19.124;2023-06-10T00:22:22;5.07;;;4.00;;
44214;SDS011;29884;47.450;19.124;2023-06-10T00:24:54;5.10;;;4.07;;
44214;SDS011;29884;47.450;19.124;2023-06-10T00:27:21;6.13;;;3.95;;
44214;SDS011;29884;47.450;19.124;2023-06-10T00:29:47;4.68;;;4.03;;
44214;SDS011;29884;47.450;19.124;2023-06-10T00:32:13;7.47;;;4.05;;
44214;SDS011;29884;47.450;19.124;2023-06-10T00:34:38;5.80;;;3.63;;
44214;SDS011;29884;47.450;19.124;2023-06-10T00:37:04;5.75;;;3.72;;
44214;SDS011;29884;47.450;19.124;2023-06-10T00:39:30;5.78;;;3.70;;
44214;SDS011;29884;47.450;19.124;2023-06-10T00:41:56;5.40;;;3.75;;
44214;SDS011;29884;47.450;19.124;2023-06-10T00:44:21;5.90;;;3.00;;
44214;SDS011;29884;47.450;19.124;2023-06-10T00:46:47;5.95;;;3.90;;
44214;SDS011;29884;47.450;19.124;2023-06-10T00:49:16;5.82;;;3.40;;
44214;SDS011;29884;47.450;19.124;2023-06-10T00:51:42;4.13;;;3.25;;
44214;SDS011;29884;47.450;19.124;2023-06-10T00:54:07;3.65;;;3.35;;
44214;SDS011;29884;47.450;19.124;2023-06-10T00:56:34;5.20;;;3.25;;
44214;SDS011;29884;47.450;19.124;2023-06-10T00:59:00;3.97;;;3.13;;
44214;SDS011;29884;47.450;19.124;2023-06-10T01:01:26;5.00;;;2.92;;
44214;SDS011;29884;47.450;19.124;2023-06-10T01:03:52;5.82;;;3.20;;
44214;SDS011;29884;47.450;19.124;2023-06-10T01:09:18;4.45;;;2.88;;
44214;SDS011;29884;47.450;19.124;2023-06-10T01:12:09;4.28;;;3.13;;
44214;SDS011;29884;47.450;19.124;2023-06-10T01:14:51;3.35;;;3.00;;
44214;SDS011;29884;47.450;19.124;2023-06-10T01:17:17;5.68;;;3.08;;
44214;SDS011;29884;47.450;19.124;2023-06-10T01:19:43;3.50;;;2.58;;
44214;SDS011;29884;47.450;19.124;2023-06-10T01:22:09;6.63;;;2.72;;
44214;SDS011;29884;47.450;19.124;2023-06-10T01:24:36;3.28;;;2.60;;
44214;SDS011;29884;47.450;19.124;2023-06-10T01:27:05;4.82;;;2.78;;
44214;SDS011;29884;47.450;19.124;2023-06-10T01:29:40;5.63;;;2.67;;
44214;SDS011;29884;47.450;19.124;2023-06-10T01:32:24;2.90;;;2.45;;
44214;SDS011;29884;47.450;19.124;2023-06-10T01:34:54;3.70;;;2.60;;
44214;SDS011;29884;47.450;19.124;2023-06-10T01:37:22;3.35;;;2.65;;
44214;SDS011;29884;47.450;19.124;2023-06-10T01:39:50;3.30;;;2.33;;
44214;SDS011;29884;47.450;19.124;2023-06-10T01:42:17;4.88;;;2.80;;
44214;SDS011;29884;47.450;19.124;2023-06-10T01:44:43;3.35;;;2.80;;
44214;SDS011;29884;47.450;19.124;2023-06-10T01:47:09;3.40;;;2.58;;
44214;SDS011;29884;47.450;19.124;2023-06-10T01:49:34;3.40;;;2.97;;
44214;SDS011;29884;47.450;19.124;2023-06-10T01:52:00;5.60;;;2.70;;
44214;SDS011;29884;47.450;19.124;2023-06-10T01:54:26;2.92;;;2.63;;
44214;SDS011;29884;47.450;19.124;2023-06-10T01:56:52;4.03;;;2.55;;
44214;SDS011;29884;47.450;19.124;2023-06-10T01:59:18;3.08;;;2.45;;
44214;SDS011;29884;47.450;19.124;2023-06-10T02:01:43;4.82;;;2.88;;
44214;SDS011;29884;47.450;19.124;2023-06-10T02:04:09;3.00;;;2.60;;
44214;SDS011;29884;47.450;19.124;2023-06-10T02:06:35;3.55;;;2.75;;
44214;SDS011;29884;47.450;19.124;2023-06-10T02:09:02;3.13;;;2.83;;
44214;SDS011;29884;47.450;19.124;2023-06-10T02:11:28;3.63;;;3.17;;
44214;SDS011;29884;47.450;19.124;2023-06-10T02:13:54;4.38;;;2.88;;
44214;SDS011;29884;47.450;19.124;2023-06-10T02:16:20;4.93;;;3.38;;
44214;SDS011;29884;47.450;19.124;2023-06-10T02:18:46;4.15;;;3.22;;
44214;SDS011;29884;47.450;19.124;2023-06-10T02:21:13;3.47;;;3.17;;
44214;SDS011;29884;47.450;19.124;2023-06-10T02:23:39;4.43;;;3.33;;
44214;SDS011;29884;47.450;19.124;2023-06-10T02:26:05;5.10;;;3.20;;
44214;SDS011;29884;47.450;19.124;2023-06-10T02:28:31;6.50;;;3.47;;
44214;SDS011;29884;47.450;19.124;2023-06-10T02:30:57;5.03;;;3.55;;
44214;SDS011;29884;47.450;19.124;2023-06-10T02:33:24;4.95;;;3.03;;
44214;SDS011;29884;47.450;19.124;2023-06-10T02:35:50;6.38;;;3.45;;
44214;SDS011;29884;47.450;19.124;2023-06-10T02:38:15;5.15;;;3.35;;
44214;SDS011;29884;47.450;19.124;2023-06-10T02:40:42;5.53;;;2.90;;
44214;SDS011;29884;47.450;19.124;2023-06-10T02:43:08;3.80;;;3.08;;
44214;SDS011;29884;47.450;19.124;2023-06-10T02:45:34;5.78;;;2.85;;
44214;SDS011;29884;47.450;19.124;2023-06-10T02:48:00;4.32;;;3.28;;
44214;SDS011;29884;47.450;19.124;2023-06-10T02:50:26;4.35;;;2.92;;
44214;SDS011;29884;47.450;19.124;2023-06-10T02:52:51;6.88;;;3.08;;
44214;SDS011;29884;47.450;19.124;2023-06-10T02:55:17;3.47;;;3.17;;
44214;SDS011;29884;47.450;19.124;2023-06-10T02:57:43;3.80;;;2.85;;
44214;SDS011;29884;47.450;19.124;2023-06-10T03:00:09;4.43;;;3.08;;
44214;SDS011;29884;47.450;19.124;2023-06-10T03:02:36;3.75;;;2.85;;
44214;SDS011;29884;47.450;19.124;2023-06-10T03:05:04;2.92;;;2.40;;
44214;SDS011;29884;47.450;19.124;2023-06-10T03:07:30;4.20;;;3.13;;
44214;SDS011;29884;47.450;19.124;2023-06-10T03:09:57;3.53;;;2.90;;
44214;SDS011;29884;47.450;19.124;2023-06-10T03:12:22;4.05;;;3.13;;
44214;SDS011;29884;47.450;19.124;2023-06-10T03:14:48;4.07;;;3.10;;
44214;SDS011;29884;47.450;19.124;2023-06-10T03:17:14;4.88;;;3.13;;
44214;SDS011;29884;47.450;19.124;2023-06-10T03:19:39;3.85;;;2.33;;
44214;SDS011;29884;47.450;19.124;2023-06-10T03:22:12;5.68;;;2.63;;
44214;SDS011;29884;47.450;19.124;2023-06-10T03:24:39;3.75;;;3.05;;
44214;SDS011;29884;47.450;19.124;2023-06-10T03:27:08;3.15;;;2.85;;
44214;SDS011;29884;47.450;19.124;2023-06-10T03:29:34;3.15;;;2.42;;
44214;SDS011;29884;47.450;19.124;2023-06-10T03:32:00;4.70;;;2.67;;
44214;SDS011;29884;47.450;19.124;2023-06-10T03:34:26;4.60;;;3.08;;
44214;SDS011;29884;47.450;19.124;2023-06-10T03:36:52;3.08;;;2.60;;
44214;SDS011;29884;47.450;19.124;2023-06-10T03:39:18;2.80;;;2.38;;
44214;SDS011;29884;47.450;19.124;2023-06-10T03:41:44;3.08;;;2.42;;
44214;SDS011;29884;47.450;19.124;2023-06-10T03:44:09;3.92;;;3.10;;
44214;SDS011;29884;47.450;19.124;2023-06-10T03:46:35;2.63;;;2.35;;
44214;SDS011;29884;47.450;19.124;2023-06-10T03:49:01;3.70;;;2.70;;
44214;SDS011;29884;47.450;19.124;2023-06-10T03:51:28;2.90;;;2.47;;
44214;SDS011;29884;47.450;19.124;2023-06-10T03:53:54;5.85;;;2.58;;
44214;SDS011;29884;47.450;19.124;2023-06-10T03:56:19;2.83;;;2.25;;
44214;SDS011;29884;47.450;19.124;2023-06-10T03:58:45;3.65;;;2.45;;
44214;SDS011;29884;47.450;19.124;2023-06-10T04:01:11;3.50;;;2.20;;
44214;SDS011;29884;47.450;19.124;2023-06-10T04:03:38;5.60;;;2.83;;
44214;SDS011;29884;47.450;19.124;2023-06-10T04:06:04;3.75;;;2.45;;
44214;SDS011;29884;47.450;19.124;2023-06-10T04:08:30;5.50;;;2.83;;
44214;SDS011;29884;47.450;19.124;2023-06-10T04:10:58;5.75;;;2.65;;
44214;SDS011;29884;47.450;19.124;2023-06-10T04:13:24;3.13;;;2.38;;
44214;SDS011;29884;47.450;19.124;2023-06-10T04:15:50;3.63;;;2.45;;
44214;SDS011;29884;47.450;19.124;2023-06-10T04:18:16;3.70;;;2.33;;
44214;SDS011;29884;47.450;19.124;2023-06-10T04:20:41;4.55;;;2.08;;
44214;SDS011;29884;47.450;19.124;2023-06-10T04:23:09;3.35;;;2.33;;
44214;SDS011;29884;47.450;19.124;2023-06-10T04:25:35;4.97;;;2.10;;
44214;SDS011;29884;47.450;19.124;2023-06-10T04:28:00;2.22;;;1.90;;
44214;SDS011;29884;47.450;19.124;2023-06-10T04:30:26;2.88;;;1.83;;
44214;SDS011;29884;47.450;19.124;2023-06-10T04:32:52;5.03;;;1.60;;
44214;SDS011;29884;47.450;19.124;2023-06-10T04:35:17;2.50;;;1.60;;
44214;SDS011;29884;47.450;19.124;2023-06-10T04:37:43;5.85;;;1.77;;
44214;SDS011;29884;47.450;19.124;2023-06-10T04:40:09;3.00;;;1.70;;
44214;SDS011;29884;47.450;19.124;2023-06-10T04:42:35;2.40;;;1.48;;
44214;SDS011;29884;47.450;19.124;2023-06-10T04:45:01;4.22;;;1.85;;
44214;SDS011;29884;47.450;19.124;2023-06-10T04:47:28;3.42;;;1.60;;
44214;SDS011;29884;47.450;19.124;2023-06-10T04:49:57;2.35;;;1.50;;
44214;SDS011;29884;47.450;19.124;2023-06-10T04:52:24;2.10;;;1.42;;
44214;SDS011;29884;47.450;19.124;2023-06-10T04:54:49;1.60;;;1.17;;
44214;SDS011;29884;47.450;19.124;2023-06-10T04:57:15;1.60;;;1.20;;
44214;SDS011;29884;47.450;19.124;2023-06-10T04:59:41;4.15;;;1.40;;
44214;SDS011;29884;47.450;19.124;2023-06-10T05:02:07;1.40;;;1.10;;
44214;SDS011;29884;47.450;19.124;2023-06-10T05:04:32;1.60;;;1.05;;
44214;SDS011;29884;47.450;19.124;2023-06-10T05:06:58;2.28;;;1.20;;
44214;SDS011;29884;47.450;19.124;2023-06-10T05:09:24;3.47;;;1.00;;
44214;SDS011;29884;47.450;19.124;2023-06-10T05:11:51;2.08;;;1.20;;
44214;SDS011;29884;47.450;19.124;2023-06-10T05:14:18;2.85;;;1.10;;
44214;SDS011;29884;47.450;19.124;2023-06-10T05:16:45;1.58;;;1.00;;
44214;SDS011;29884;47.450;19.124;2023-06-10T05:19:11;2.00;;;0.90;;
44214;SDS011;29884;47.450;19.124;2023-06-10T05:21:37;3.53;;;1.00;;
44214;SDS011;29884;47.450;19.124;2023-06-10T05:24:03;1.95;;;1.10;;
44214;SDS011;29884;47.450;19.124;2023-06-10T05:26:29;5.50;;;1.10;;
44214;SDS011;29884;47.450;19.124;2023-06-10T05:28:56;1.67;;;1.05;;
44214;SDS011;29884;47.450;19.124;2023-06-10T05:31:23;2.22;;;1.00;;
44214;SDS011;29884;47.450;19.124;2023-06-10T05:33:49;1.80;;;1.10;;
44214;SDS011;29884;47.450;19.124;2023-06-10T05:36:15;5.22;;;1.10;;
44214;SDS011;29884;47.450;19.124;2023-06-10T05:38:40;2.35;;;1.00;;
44214;SDS011;29884;47.450;19.124;2023-06-10T05:41:06;1.80;;;1.10;;
44214;SDS011;29884;47.450;19.124;2023-06-10T05:43:32;1.70;;;1.17;;
44214;SDS011;29884;47.450;19.124;2023-06-10T05:45:57;1.95;;;1.20;;
44214;SDS011;29884;47.450;19.124;2023-06-10T05:48:23;1.88;;;1.10;;
44214;SDS011;29884;47.450;19.124;2023-06-10T05:50:49;3.22;;;1.00;;
44214;SDS011;29884;47.450;19.124;2023-06-10T05:53:15;1.80;;;1.10;;
44214;SDS011;29884;47.450;19.124;2023-06-10T05:55:44;1.20;;;1.00;;
44214;SDS011;29884;47.450;19.124;2023-06-10T05:58:10;1.50;;;1.00;;
44214;SDS011;29884;47.450;19.124;2023-06-10T06:00:37;2.03;;;1.10;;
44214;SDS011;29884;47.450;19.124;2023-06-10T06:03:05;2.13;;;1.00;;
44214;SDS011;29884;47.450;19.124;2023-06-10T06:05:32;2.72;;;1.13;;
44214;SDS011;29884;47.450;19.124;2023-06-10T06:08:00;1.35;;;0.93;;
44214;SDS011;29884;47.450;19.124;2023-06-10T06:10:27;1.60;;;1.23;;
44214;SDS011;29884;47.450;19.124;2023-06-10T06:12:52;1.58;;;1.30;;
44214;SDS011;29884;47.450;19.124;2023-06-10T06:15:18;3.15;;;1.35;;
44214;SDS011;29884;47.450;19.124;2023-06-10T06:17:44;1.70;;;1.30;;
44214;SDS011;29884;47.450;19.124;2023-06-10T06:20:10;2.20;;;1.38;;
44214;SDS011;29884;47.450;19.124;2023-06-10T06:22:36;3.05;;;2.15;;
44214;SDS011;29884;47.450;19.124;2023-06-10T06:25:02;2.75;;;1.90;;
44214;SDS011;29884;47.450;19.124;2023-06-10T06:27:27;2.28;;;1.70;;
44214;SDS011;29884;47.450;19.124;2023-06-10T06:29:53;2.17;;;1.80;;
44214;SDS011;29884;47.450;19.124;2023-06-10T06:32:19;3.25;;;2.00;;
44214;SDS011;29884;47.450;19.124;2023-06-10T06:34:45;3.00;;;2.03;;
44214;SDS011;29884;47.450;19.124;2023-06-10T06:37:11;3.13;;;2.15;;
44214;SDS011;29884;47.450;19.124;2023-06-10T06:39:37;4.90;;;2.08;;
44214;SDS011;29884;47.450;19.124;2023-06-10T06:42:02;2.40;;;2.00;;
44214;SDS011;29884;47.450;19.124;2023-06-10T06:44:28;3.92;;;2.15;;
44214;SDS011;29884;47.450;19.124;2023-06-10T06:46:54;4.00;;;2.20;;
44214;SDS011;29884;47.450;19.124;2023-06-10T06:49:20;3.10;;;2.33;;
44214;SDS011;29884;47.450;19.124;2023-06-10T06:51:46;6.00;;;2.40;;
44214;SDS011;29884;47.450;19.124;2023-06-10T06:54:11;2.55;;;2.35;;
44214;SDS011;29884;47.450;19.124;2023-06-10T06:56:37;2.42;;;2.17;;
44214;SDS011;29884;47.450;19.124;2023-06-10T06:59:03;2.50;;;2.22;;
44214;SDS011;29884;47.450;19.124;2023-06-10T07:01:29;3.75;;;2.42;;
44214;SDS011;29884;47.450;19.124;2023-06-10T07:03:55;2.97;;;2.60;;
44214;SDS011;29884;47.450;19.124;2023-06-10T07:06:21;3.40;;;2.83;;
44214;SDS011;29884;47.450;19.124;2023-06-10T07:08:46;3.55;;;3.00;;
44214;SDS011;29884;47.450;19.124;2023-06-10T07:11:14;3.35;;;3.05;;
44214;SDS011;29884;47.450;19.124;2023-06-10T07:13:41;3.53;;;3.22;;
44214;SDS011;29884;47.450;19.124;2023-06-10T07:16:06;3.72;;;3.38;;
44214;SDS011;29884;47.450;19.124;2023-06-10T07:18:32;2.90;;;2.63;;
44214;SDS011;29884;47.450;19.124;2023-06-10T07:20:58;3.35;;;3.03;;
44214;SDS011;29884;47.450;19.124;2023-06-10T07:23:24;3.22;;;2.95;;
44214;SDS011;29884;47.450;19.124;2023-06-10T07:25:49;3.75;;;3.03;;
44214;SDS011;29884;47.450;19.124;2023-06-10T07:28:15;3.40;;;3.10;;
44214;SDS011;29884;47.450;19.124;2023-06-10T07:30:41;4.45;;;2.90;;
44214;SDS011;29884;47.450;19.124;2023-06-10T07:33:07;3.10;;;2.60;;
44214;SDS011;29884;47.450;19.124;2023-06-10T07:35:32;3.78;;;3.10;;
44214;SDS011;29884;47.450;19.124;2023-06-10T07:37:58;3.50;;;2.75;;
44214;SDS011;29884;47.450;19.124;2023-06-10T07:40:24;3.22;;;2.92;;
44214;SDS011;29884;47.450;19.124;2023-06-10T07:42:50;4.25;;;3.53;;
44214;SDS011;29884;47.450;19.124;2023-06-10T07:45:15;2.97;;;2.58;;
44214;SDS011;29884;47.450;19.124;2023-06-10T07:47:42;6.53;;;3.90;;
44214;SDS011;29884;47.450;19.124;2023-06-10T07:50:08;12.25;;;5.72;;
44214;SDS011;29884;47.450;19.124;2023-06-10T07:52:34;2.83;;;2.58;;
44214;SDS011;29884;47.450;19.124;2023-06-10T07:54:59;31.75;;;11.43;;
44214;SDS011;29884;47.450;19.124;2023-06-10T07:57:25;4.15;;;3.60;;
44214;SDS011;29884;47.450;19.124;2023-06-10T07:59:51;4.68;;;3.30;;
44214;SDS011;29884;47.450;19.124;2023-06-10T08:02:17;4.00;;;3.67;;
44214;SDS011;29884;47.450;19.124;2023-06-10T08:04:43;4.45;;;3.88;;
44214;SDS011;29884;47.450;19.124;2023-06-10T08:07:08;4.28;;;3.60;;
44214;SDS011;29884;47.450;19.124;2023-06-10T08:09:34;5.18;;;3.58;;
44214;SDS011;29884;47.450;19.124;2023-06-10T08:12:00;5.15;;;3.88;;
44214;SDS011;29884;47.450;19.124;2023-06-10T08:14:26;9.52;;;4.60;;
44214;SDS011;29884;47.450;19.124;2023-06-10T08:16:52;4.85;;;4.35;;
44214;SDS011;29884;47.450;19.124;2023-06-10T08:19:18;7.20;;;4.00;;
44214;SDS011;29884;47.450;19.124;2023-06-10T08:21:44;6.30;;;5.05;;
44214;SDS011;29884;47.450;19.124;2023-06-10T08:24:10;7.68;;;4.97;;
44214;SDS011;29884;47.450;19.124;2023-06-10T08:26:35;6.35;;;4.60;;
44214;SDS011;29884;47.450;19.124;2023-06-10T08:29:01;5.28;;;4.45;;
44214;SDS011;29884;47.450;19.124;2023-06-10T08:31:27;5.35;;;4.45;;
44214;SDS011;29884;47.450;19.124;2023-06-10T08:33:52;5.65;;;4.55;;
44214;SDS011;29884;47.450;19.124;2023-06-10T08:36:18;6.40;;;5.53;;
44214;SDS011;29884;47.450;19.124;2023-06-10T08:38:44;6.97;;;5.93;;
44214;SDS011;29884;47.450;19.124;2023-06-10T08:41:10;6.30;;;5.70;;
44214;SDS011;29884;47.450;19.124;2023-06-10T08:43:40;5.78;;;5.15;;
44214;SDS011;29884;47.450;19.124;2023-06-10T08:46:09;5.72;;;5.00;;
44214;SDS011;29884;47.450;19.124;2023-06-10T08:48:37;5.95;;;5.35;;
44214;SDS011;29884;47.450;19.124;2023-06-10T08:51:06;6.00;;;4.70;;
44214;SDS011;29884;47.450;19.124;2023-06-10T08:53:36;4.80;;;4.30;;
44214;SDS011;29884;47.450;19.124;2023-06-10T08:56:08;4.75;;;4.25;;
44214;SDS011;29884;47.450;19.124;2023-06-10T08:58:35;5.00;;;4.50;;
44214;SDS011;29884;47.450;19.124;2023-06-10T09:01:07;5.40;;;4.85;;
44214;SDS011;29884;47.450;19.124;2023-06-10T09:03:33;4.88;;;4.47;;
44214;SDS011;29884;47.450;19.124;2023-06-10T09:06:03;5.40;;;4.90;;
44214;SDS011;29884;47.450;19.124;2023-06-10T09:08:30;6.05;;;5.20;;
44214;SDS011;29884;47.450;19.124;2023-06-10T09:10:56;6.18;;;4.82;;
44214;SDS011;29884;47.450;19.124;2023-06-10T09:13:22;5.60;;;5.00;;
44214;SDS011;29884;47.450;19.124;2023-06-10T09:15:48;5.72;;;5.18;;
44214;SDS011;29884;47.450;19.124;2023-06-10T09:18:16;6.78;;;4.95;;
44214;SDS011;29884;47.450;19.124;2023-06-10T09:20:42;5.78;;;5.18;;
44214;SDS011;29884;47.450;19.124;2023-06-10T09:23:08;14.32;;;6.25;;
44214;SDS011;29884;47.450;19.124;2023-06-10T09:25:35;5.82;;;5.28;;
44214;SDS011;29884;47.450;19.124;2023-06-10T09:28:02;6.70;;;5.45;;
44214;SDS011;29884;47.450;19.124;2023-06-10T09:30:29;6.32;;;5.72;;
44214;SDS011;29884;47.450;19.124;2023-06-10T09:32:57;7.30;;;6.00;;
44214;SDS011;29884;47.450;19.124;2023-06-10T09:35:25;6.28;;;5.68;;
44214;SDS011;29884;47.450;19.124;2023-06-10T09:37:58;6.72;;;5.63;;
44214;SDS011;29884;47.450;19.124;2023-06-10T09:40:25;5.97;;;5.43;;
44214;SDS011;29884;47.450;19.124;2023-06-10T09:42:56;6.68;;;5.60;;
44214;SDS011;29884;47.450;19.124;2023-06-10T09:45:25;6.03;;;5.40;;
44214;SDS011;29884;47.450;19.124;2023-06-10T09:47:56;5.93;;;4.95;;
44214;SDS011;29884;47.450;19.124;2023-06-10T09:50:22;7.15;;;5.95;;
44214;SDS011;29884;47.450;19.124;2023-06-10T09:52:47;7.57;;;6.47;;
44214;SDS011;29884;47.450;19.124;2023-06-10T09:55:14;6.72;;;6.13;;
44214;SDS011;29884;47.450;19.124;2023-06-10T09:57:39;7.70;;;6.95;;
44214;SDS011;29884;47.450;19.124;2023-06-10T10:00:09;7.30;;;6.60;;
44214;SDS011;29884;47.450;19.124;2023-06-10T10:02:53;7.80;;;7.00;;
44214;SDS011;29884;47.450;19.124;2023-06-10T10:05:20;6.80;;;6.00;;
44214;SDS011;29884;47.450;19.124;2023-06-10T10:07:47;8.30;;;6.57;;
44214;SDS011;29884;47.450;19.124;2023-06-10T10:10:13;7.60;;;6.18;;
44214;SDS011;29884;47.450;19.124;2023-06-10T10:12:40;6.85;;;6.25;;
44214;SDS011;29884;47.450;19.124;2023-06-10T10:15:07;8.13;;;6.13;;
44214;SDS011;29884;47.450;19.124;2023-06-10T10:17:44;6.70;;;5.90;;
44214;SDS011;29884;47.450;19.124;2023-06-10T10:20:19;6.88;;;6.28;;
44214;SDS011;29884;47.450;19.124;2023-06-10T10:22:49;7.53;;;6.63;;
44214;SDS011;29884;47.450;19.124;2023-06-10T10:25:20;7.20;;;6.50;;
44214;SDS011;29884;47.450;19.124;2023-06-10T10:27:51;6.70;;;6.05;;
44214;SDS011;29884;47.450;19.124;2023-06-10T10:30:20;6.57;;;5.97;;
44214;SDS011;29884;47.450;19.124;2023-06-10T10:35:37;6.47;;;5.88;;
44214;SDS011;29884;47.450;19.124;2023-06-10T10:38:04;5.57;;;5.07;;
44214;SDS011;29884;47.450;19.124;2023-06-10T10:40:31;6.45;;;5.82;;
44214;SDS011;29884;47.450;19.124;2023-06-10T10:42:58;5.68;;;5.18;;
44214;SDS011;29884;47.450;19.124;2023-06-10T10:45:26;7.53;;;5.53;;
44214;SDS011;29884;47.450;19.124;2023-06-10T10:47:53;6.15;;;5.65;;
44214;SDS011;29884;47.450;19.124;2023-06-10T10:50:22;6.85;;;6.25;;
44214;SDS011;29884;47.450;19.124;2023-06-10T10:52:56;7.35;;;6.75;;
44214;SDS011;29884;47.450;19.124;2023-06-10T10:55:26;8.10;;;7.30;;
44214;SDS011;29884;47.450;19.124;2023-06-10T10:57:56;7.68;;;6.97;;
44214;SDS011;29884;47.450;19.124;2023-06-10T11:00:33;7.88;;;7.13;;
44214;SDS011;29884;47.450;19.124;2023-06-10T11:05:38;8.85;;;7.65;;
44214;SDS011;29884;47.450;19.124;2023-06-10T11:08:07;7.65;;;6.95;;
44214;SDS011;29884;47.450;19.124;2023-06-10T11:10:35;6.35;;;5.85;;
44214;SDS011;29884;47.450;19.124;2023-06-10T11:13:05;4.88;;;4.38;;
44214;SDS011;29884;47.450;19.124;2023-06-10T11:15:33;4.70;;;4.30;;
44214;SDS011;29884;47.450;19.124;2023-06-10T11:18:13;6.07;;;4.22;;
44214;SDS011;29884;47.450;19.124;2023-06-10T11:23:24;4.53;;;4.18;;
44214;SDS011;29884;47.450;19.124;2023-06-10T11:28:38;5.35;;;4.90;;
44214;SDS011;29884;47.450;19.124;2023-06-10T11:31:04;5.70;;;5.20;;
44214;SDS011;29884;47.450;19.124;2023-06-10T11:33:30;5.57;;;5.07;;
44214;SDS011;29884;47.450;19.124;2023-06-10T11:35:56;5.82;;;5.32;;
44214;SDS011;29884;47.450;19.124;2023-06-10T11:38:23;5.90;;;5.40;;
44214;SDS011;29884;47.450;19.124;2023-06-10T11:40:49;5.68;;;5.28;;
44214;SDS011;29884;47.450;19.124;2023-06-10T11:43:18;6.63;;;6.10;;
44214;SDS011;29884;47.450;19.124;2023-06-10T11:45:45;5.30;;;4.80;;
44214;SDS011;29884;47.450;19.124;2023-06-10T11:48:11;3.88;;;3.58;;
44214;SDS011;29884;47.450;19.124;2023-06-10T11:50:38;4.35;;;3.95;;
44214;SDS011;29884;47.450;19.124;2023-06-10T11:53:04;4.53;;;4.22;;
44214;SDS011;29884;47.450;19.124;2023-06-10T11:55:43;4.20;;;3.90;;
44214;SDS011;29884;47.450;19.124;2023-06-10T11:58:19;4.32;;;3.58;;
44214;SDS011;29884;47.450;19.124;2023-06-10T12:00:47;3.45;;;3.20;;
44214;SDS011;29884;47.450;19.124;2023-06-10T12:03:14;3.08;;;2.88;;
44214;SDS011;29884;47.450;19.124;2023-06-10T12:05:40;5.82;;;2.25;;
44214;SDS011;29884;47.450;19.124;2023-06-10T12:08:18;2.20;;;1.92;;
44214;SDS011;29884;47.450;19.124;2023-06-10T12:10:44;1.70;;;1.60;;
44214;SDS011;29884;47.450;19.124;2023-06-10T12:13:09;1.83;;;1.73;;
44214;SDS011;29884;47.450;19.124;2023-06-10T12:15:35;2.17;;;1.98;;
44214;SDS011;29884;47.450;19.124;2023-06-10T12:18:02;2.50;;;2.30;;
44214;SDS011;29884;47.450;19.124;2023-06-10T12:20:31;2.22;;;2.03;;
44214;SDS011;29884;47.450;19.124;2023-06-10T12:23:00;1.90;;;1.50;;
44214;SDS011;29884;47.450;19.124;2023-06-10T12:25:34;1.40;;;1.30;;
44214;SDS011;29884;47.450;19.124;2023-06-10T12:28:01;1.50;;;1.10;;
44214;SDS011;29884;47.450;19.124;2023-06-10T12:30:28;1.20;;;1.10;;
44214;SDS011;29884;47.450;19.124;2023-06-10T12:32:54;1.10;;;1.00;;
44214;SDS011;29884;47.450;19.124;2023-06-10T12:35:21;1.20;;;1.00;;
44214;SDS011;29884;47.450;19.124;2023-06-10T12:37:55;1.15;;;0.90;;
44214;SDS011;29884;47.450;19.124;2023-06-10T12:40:31;1.17;;;1.00;;
44214;SDS011;29884;47.450;19.124;2023-06-10T12:42:59;0.85;;;0.70;;
44214;SDS011;29884;47.450;19.124;2023-06-10T12:48:11;0.82;;;0.80;;
44214;SDS011;29884;47.450;19.124;2023-06-10T12:50:43;0.88;;;0.77;;
44214;SDS011;29884;47.450;19.124;2023-06-10T12:53:10;1.90;;;0.80;;
44214;SDS011;29884;47.450;19.124;2023-06-10T12:55:37;0.70;;;0.70;;
44214;SDS011;29884;47.450;19.124;2023-06-10T12:58:03;1.60;;;0.75;;
44214;SDS011;29884;47.450;19.124;2023-06-10T13:00:29;0.90;;;0.70;;
44214;SDS011;29884;47.450;19.124;2023-06-10T13:02:55;1.70;;;0.73;;
44214;SDS011;29884;47.450;19.124;2023-06-10T13:05:22;0.80;;;0.77;;
44214;SDS011;29884;47.450;19.124;2023-06-10T13:07:48;1.17;;;0.80;;
44214;SDS011;29884;47.450;19.124;2023-06-10T13:10:15;1.00;;;0.70;;
44214;SDS011;29884;47.450;19.124;2023-06-10T13:12:42;0.80;;;0.60;;
44214;SDS011;29884;47.450;19.124;2023-06-10T13:15:08;0.63;;;0.60;;
44214;SDS011;29884;47.450;19.124;2023-06-10T13:17:34;1.02;;;0.60;;
44214;SDS011;29884;47.450;19.124;2023-06-10T13:20:04;0.80;;;0.60;;
44214;SDS011;29884;47.450;19.124;2023-06-10T13:22:31;0.85;;;0.70;;
44214;SDS011;29884;47.450;19.124;2023-06-10T13:25:01;0.60;;;0.60;;
44214;SDS011;29884;47.450;19.124;2023-06-10T13:27:29;0.82;;;0.50;;
44214;SDS011;29884;47.450;19.124;2023-06-10T13:29:55;0.90;;;0.60;;
44214;SDS011;29884;47.450;19.124;2023-06-10T13:32:21;2.65;;;0.70;;
44214;SDS011;29884;47.450;19.124;2023-06-10T13:34:47;0.60;;;0.60;;
44214;SDS011;29884;47.450;19.124;2023-06-10T13:37:14;0.60;;;0.60;;
44214;SDS011;29884;47.450;19.124;2023-06-10T13:39:40;1.00;;;0.70;;
44214;SDS011;29884;47.450;19.124;2023-06-10T13:42:06;1.23;;;1.00;;
44214;SDS011;29884;47.450;19.124;2023-06-10T13:44:33;1.13;;;1.00;;
44214;SDS011;29884;47.450;19.124;2023-06-10T13:47:01;0.98;;;0.70;;
44214;SDS011;29884;47.450;19.124;2023-06-10T13:49:30;0.70;;;0.70;;
44214;SDS011;29884;47.450;19.124;2023-06-10T13:51:56;1.33;;;0.90;;
44214;SDS011;29884;47.450;19.124;2023-06-10T13:54:22;2.92;;;1.20;;
44214;SDS011;29884;47.450;19.124;2023-06-10T13:56:48;2.83;;;1.15;;
44214;SDS011;29884;47.450;19.124;2023-06-10T13:59:14;1.10;;;1.00;;
44214;SDS011;29884;47.450;19.124;2023-06-10T14:01:40;3.45;;;1.00;;
44214;SDS011;29884;47.450;19.124;2023-06-10T14:04:07;2.25;;;1.05;;
44214;SDS011;29884;47.450;19.124;2023-06-10T14:06:33;1.88;;;1.00;;
44214;SDS011;29884;47.450;19.124;2023-06-10T14:08:59;1.88;;;1.10;;
44214;SDS011;29884;47.450;19.124;2023-06-10T14:11:25;2.10;;;1.63;;
44214;SDS011;29884;47.450;19.124;2023-06-10T14:13:51;2.10;;;1.60;;
44214;SDS011;29884;47.450;19.124;2023-06-10T14:16:17;2.25;;;1.88;;
44214;SDS011;29884;47.450;19.124;2023-06-10T14:18:42;1.83;;;1.70;;
44214;SDS011;29884;47.450;19.124;2023-06-10T14:21:08;3.00;;;2.20;;
44214;SDS011;29884;47.450;19.124;2023-06-10T14:23:34;2.30;;;2.05;;
44214;SDS011;29884;47.450;19.124;2023-06-10T14:26:00;2.88;;;2.58;;
44214;SDS011;29884;47.450;19.124;2023-06-10T14:28:31;2.47;;;2.28;;
44214;SDS011;29884;47.450;19.124;2023-06-10T14:31:16;3.92;;;2.70;;
44214;SDS011;29884;47.450;19.124;2023-06-10T14:33:41;3.70;;;2.58;;
44214;SDS011;29884;47.450;19.124;2023-06-10T14:36:08;2.38;;;2.17;;
44214;SDS011;29884;47.450;19.124;2023-06-10T14:38:35;2.25;;;2.05;;
44214;SDS011;29884;47.450;19.124;2023-06-10T14:41:00;2.70;;;2.40;;
44214;SDS011;29884;47.450;19.124;2023-06-10T14:43:27;2.00;;;1.80;;
44214;SDS011;29884;47.450;19.124;2023-06-10T14:45:53;2.22;;;1.85;;
44214;SDS011;29884;47.450;19.124;2023-06-10T14:48:20;2.00;;;1.60;;